createdAt,value
2023-05-18T00:01:00.449Z,2.10
2023-05-18T00:03:30.121Z,2.47
2023-05-18T00:06:04.249Z,2.73
2023-05-18T00:08:34.394Z,2.80
2023-05-18T00:11:03.310Z,2.80
2023-05-18T00:13:32.284Z,3.60
2023-05-18T00:16:01.069Z,3.13
2023-05-18T00:18:29.831Z,2.57
2023-05-18T00:20:59.695Z,2.87
2023-05-18T00:23:30.010Z,2.27
2023-05-18T00:26:01.584Z,2.60
2023-05-18T00:28:30.592Z,3.07
2023-05-18T00:31:00.463Z,2.60
2023-05-18T00:33:29.180Z,2.60
2023-05-18T00:35:59.336Z,2.90
2023-05-18T00:38:28.011Z,2.30
2023-05-18T00:40:56.763Z,2.37
2023-05-18T00:43:26.896Z,2.57
2023-05-18T00:45:55.631Z,2.80
2023-05-18T00:48:24.456Z,2.70
2023-05-18T00:50:53.226Z,2.30
2023-05-18T00:53:21.934Z,2.20
2023-05-18T00:55:50.809Z,2.40
2023-05-18T00:58:19.524Z,2.57
2023-05-18T01:00:49.725Z,2.90
2023-05-18T01:03:21.230Z,2.60
2023-05-18T01:05:50.291Z,2.53
2023-05-18T01:08:19.702Z,2.13
2023-05-18T01:10:53.758Z,2.20
2023-05-18T01:13:28.678Z,2.43
2023-05-18T01:16:02.852Z,2.27
2023-05-18T01:18:35.873Z,2.40
2023-05-18T01:21:20.218Z,2.60
2023-05-18T01:24:21.953Z,2.73
2023-05-18T01:26:57.799Z,2.30
2023-05-18T01:29:28.199Z,2.33
2023-05-18T01:31:57.031Z,2.33
2023-05-18T01:34:25.959Z,2.73
2023-05-18T01:36:55.077Z,2.37
2023-05-18T01:39:23.984Z,2.10
2023-05-18T01:41:57.776Z,2.10
2023-05-18T01:44:33.032Z,2.30
2023-05-18T01:47:08.286Z,2.97
2023-05-18T01:49:40.229Z,2.37
2023-05-18T01:52:12.842Z,2.40
2023-05-18T01:54:45.744Z,2.10
2023-05-18T01:57:18.064Z,2.70
2023-05-18T01:59:47.982Z,2.40
2023-05-18T02:02:17.647Z,1.83
2023-05-18T02:04:46.717Z,2.17
2023-05-18T02:07:15.459Z,2.10
2023-05-18T02:09:45.086Z,2.00
2023-05-18T02:12:16.428Z,2.17
2023-05-18T02:14:45.262Z,2.17
2023-05-18T02:17:14.090Z,2.10
2023-05-18T02:19:43.259Z,2.23
2023-05-18T02:22:12.453Z,2.00
2023-05-18T02:24:41.345Z,2.37
2023-05-18T02:27:10.225Z,2.33
2023-05-18T02:29:40.600Z,2.53
2023-05-18T02:32:10.378Z,2.57
2023-05-18T02:34:42.283Z,2.17
2023-05-18T02:37:13.779Z,2.40
2023-05-18T02:39:42.618Z,2.40
2023-05-18T02:42:11.541Z,2.10
2023-05-18T02:44:42.642Z,2.60
2023-05-18T02:47:15.261Z,2.67
2023-05-18T02:49:44.803Z,2.50
2023-05-18T02:52:13.936Z,2.40
2023-05-18T02:54:43.154Z,2.20
2023-05-18T02:57:18.354Z,2.20
2023-05-18T03:00:01.010Z,2.30
2023-05-18T03:02:30.329Z,2.17
2023-05-18T03:04:59.495Z,2.43
2023-05-18T03:07:28.697Z,2.57
2023-05-18T03:09:58.507Z,2.40
2023-05-18T03:12:27.482Z,2.03
2023-05-18T03:14:56.492Z,3.87
2023-05-18T03:17:27.268Z,2.43
2023-05-18T03:19:56.232Z,3.20
2023-05-18T03:22:25.165Z,2.70
2023-05-18T03:24:55.639Z,3.27
2023-05-18T03:27:26.826Z,3.07
2023-05-18T03:29:56.587Z,2.83
2023-05-18T03:32:28.460Z,3.10
2023-05-18T03:34:57.804Z,2.80
2023-05-18T03:37:26.581Z,3.93
2023-05-18T03:39:56.716Z,3.40
2023-05-18T03:42:25.914Z,3.60
2023-05-18T03:44:55.190Z,2.83
2023-05-18T03:47:24.148Z,2.97
2023-05-18T03:49:54.573Z,3.10
2023-05-18T03:52:24.247Z,3.53
2023-05-18T03:54:53.980Z,3.40
2023-05-18T03:57:23.295Z,3.20
2023-05-18T03:59:52.335Z,3.03
2023-05-18T04:02:21.264Z,3.70
2023-05-18T04:04:53.986Z,2.87
2023-05-18T04:07:24.506Z,3.10
2023-05-18T04:09:53.788Z,2.90
2023-05-18T04:12:22.828Z,3.00
2023-05-18T04:14:54.244Z,2.80
2023-05-18T04:17:23.195Z,2.87
2023-05-18T04:19:52.221Z,2.80
2023-05-18T04:22:22.121Z,2.30
2023-05-18T04:24:55.231Z,2.30
2023-05-18T04:27:25.120Z,2.07
2023-05-18T04:29:54.297Z,1.90
2023-05-18T04:32:27.071Z,2.20
2023-05-18T04:34:58.604Z,2.00
2023-05-18T04:37:28.708Z,2.33
2023-05-18T04:40:02.244Z,2.23
2023-05-18T04:42:34.654Z,2.33
2023-05-18T04:45:06.028Z,2.83
2023-05-18T04:47:35.948Z,2.60
2023-05-18T04:50:05.938Z,2.67
2023-05-18T04:52:37.387Z,2.50
2023-05-18T04:55:11.005Z,3.13
2023-05-18T04:57:40.206Z,3.13
2023-05-18T05:00:10.324Z,4.87
2023-05-18T05:02:39.360Z,4.75
2023-05-18T05:05:08.859Z,5.07
2023-05-18T05:07:37.897Z,5.30
2023-05-18T05:10:10.171Z,6.10
2023-05-18T05:12:39.293Z,4.60
2023-05-18T05:15:09.716Z,3.42
2023-05-18T05:17:38.926Z,2.47
2023-05-18T05:20:11.085Z,1.65
2023-05-18T05:22:40.113Z,2.10
2023-05-18T05:25:13.801Z,2.13
2023-05-18T05:27:42.849Z,1.98
2023-05-18T05:30:12.600Z,2.17
2023-05-18T05:32:43.500Z,2.20
2023-05-18T05:35:12.862Z,1.70
2023-05-18T05:37:42.822Z,1.70
2023-05-18T05:40:13.759Z,1.80
2023-05-18T05:42:45.669Z,1.83
2023-05-18T05:45:15.014Z,1.73
2023-05-18T05:47:50.759Z,2.00
2023-05-18T05:50:21.695Z,2.00
2023-05-18T05:52:52.849Z,1.90
2023-05-18T05:55:24.554Z,1.73
2023-05-18T05:57:54.021Z,1.97
2023-05-18T06:00:23.783Z,1.90
2023-05-18T06:02:55.940Z,1.60
2023-05-18T06:05:33.690Z,1.40
2023-05-18T06:08:03.854Z,1.70
2023-05-18T06:10:34.792Z,1.40
2023-05-18T06:13:04.023Z,1.33
2023-05-18T06:15:51.953Z,1.67
2023-05-18T06:18:21.103Z,1.60
2023-05-18T06:20:51.919Z,1.57
2023-05-18T06:23:23.726Z,1.50
2023-05-18T06:26:05.996Z,1.43
2023-05-18T06:28:49.813Z,1.10
2023-05-18T06:31:42.271Z,1.40
2023-05-18T06:34:14.383Z,1.50
2023-05-18T06:36:43.391Z,1.03
2023-05-18T06:39:12.636Z,1.10
2023-05-18T06:41:45.255Z,1.10
2023-05-18T06:44:21.538Z,1.03
2023-05-18T06:47:08.235Z,1.10
2023-05-18T06:49:37.723Z,1.20
2023-05-18T06:52:08.945Z,1.80
2023-05-18T06:54:38.572Z,1.40
2023-05-18T06:57:09.891Z,1.33
2023-05-18T06:59:38.975Z,1.30
2023-05-18T07:02:09.025Z,1.53
2023-05-18T07:04:37.915Z,1.07
2023-05-18T07:07:07.807Z,0.97
2023-05-18T07:09:37.191Z,1.10
2023-05-18T07:12:06.938Z,1.00
2023-05-18T07:14:37.599Z,1.83
2023-05-18T07:17:07.831Z,1.23
2023-05-18T07:19:36.926Z,0.87
2023-05-18T07:22:07.783Z,0.83
2023-05-18T07:24:36.909Z,0.90
2023-05-18T07:27:06.276Z,0.80
2023-05-18T07:29:36.869Z,0.73
2023-05-18T07:32:06.833Z,0.70
2023-05-18T07:34:36.167Z,1.30
2023-05-18T07:37:05.493Z,0.60
2023-05-18T07:39:34.310Z,0.70
2023-05-18T07:42:03.710Z,0.90
2023-05-18T07:44:32.827Z,1.03
2023-05-18T07:47:03.785Z,0.80
2023-05-18T07:49:32.802Z,1.30
2023-05-18T07:52:02.785Z,1.43
2023-05-18T07:54:31.566Z,0.87
2023-05-18T07:57:00.953Z,0.60
2023-05-18T07:59:30.304Z,0.70
2023-05-18T08:02:00.498Z,0.80
2023-05-18T08:04:31.536Z,1.00
2023-05-18T08:07:02.184Z,1.00
2023-05-18T08:09:31.281Z,1.03
2023-05-18T08:12:00.295Z,0.70
2023-05-18T08:14:29.188Z,0.70
2023-05-18T08:16:58.357Z,1.10
2023-05-18T08:19:27.591Z,0.90
2023-05-18T08:21:58.431Z,0.93
2023-05-18T08:24:27.541Z,0.87
2023-05-18T08:26:57.523Z,0.80
2023-05-18T08:29:26.489Z,1.40
2023-05-18T08:31:55.534Z,0.80
2023-05-18T08:34:25.423Z,1.00
2023-05-18T08:36:54.471Z,0.90
2023-05-18T08:39:24.985Z,1.10
2023-05-18T08:42:02.379Z,0.90
2023-05-18T08:44:39.930Z,1.10
2023-05-18T08:47:11.572Z,1.53
2023-05-18T08:49:43.481Z,1.10
2023-05-18T08:52:19.347Z,1.27
2023-05-18T08:54:52.771Z,1.10
2023-05-18T08:57:23.624Z,0.87
2023-05-18T08:59:54.307Z,0.97
2023-05-18T09:02:23.892Z,1.27
2023-05-18T09:04:53.054Z,0.90
2023-05-18T09:07:23.396Z,1.10
2023-05-18T09:09:55.998Z,0.90
2023-05-18T09:12:25.269Z,0.70
2023-05-18T09:14:55.606Z,1.00
2023-05-18T09:17:24.648Z,0.93
2023-05-18T09:19:53.587Z,0.90
2023-05-18T09:22:22.429Z,0.70
2023-05-18T09:24:51.119Z,1.27
2023-05-18T09:27:21.723Z,0.80
2023-05-18T09:29:54.811Z,1.27
2023-05-18T09:32:23.979Z,0.80
2023-05-18T09:34:53.412Z,1.07
2023-05-18T09:37:23.088Z,1.10
2023-05-18T09:40:00.957Z,1.20
2023-05-18T09:42:40.866Z,1.03
2023-05-18T09:45:18.958Z,0.90
2023-05-18T09:47:47.736Z,1.30
2023-05-18T09:50:19.630Z,1.30
2023-05-18T09:52:49.315Z,1.33
2023-05-18T09:55:19.603Z,1.17
2023-05-18T09:57:51.147Z,1.10
2023-05-18T10:00:22.866Z,1.50
2023-05-18T10:02:53.436Z,1.30
2023-05-18T10:05:22.693Z,0.80
2023-05-18T10:07:52.658Z,0.87
2023-05-18T10:10:23.206Z,0.70
2023-05-18T10:12:54.210Z,0.80
2023-05-18T10:15:24.524Z,0.90
2023-05-18T10:17:57.342Z,1.07
2023-05-18T10:20:27.555Z,0.97
2023-05-18T10:22:57.420Z,1.17
2023-05-18T10:25:28.209Z,0.90
2023-05-18T10:28:01.302Z,0.90
2023-05-18T10:30:31.273Z,0.83
2023-05-18T10:33:01.553Z,1.07
2023-05-18T10:35:31.543Z,1.10
2023-05-18T10:38:00.984Z,0.90
2023-05-18T10:40:30.548Z,1.10
2023-05-18T10:43:05.135Z,1.57
2023-05-18T10:45:36.372Z,1.20
2023-05-18T10:48:08.472Z,1.00
2023-05-18T10:50:39.892Z,0.90
2023-05-18T10:53:11.103Z,1.10
2023-05-18T10:55:39.989Z,0.80
2023-05-18T10:58:14.322Z,1.00
2023-05-18T11:00:46.064Z,1.10
2023-05-18T11:03:16.459Z,1.13
2023-05-18T11:05:49.894Z,1.10
2023-05-18T11:08:27.804Z,1.03
2023-05-18T11:11:07.616Z,1.33
2023-05-18T11:13:39.858Z,1.10
2023-05-18T11:16:09.897Z,1.10
2023-05-18T11:18:44.156Z,1.03
2023-05-18T11:21:36.552Z,1.40
2023-05-18T11:24:23.309Z,0.93
2023-05-18T11:26:53.859Z,1.40
2023-05-18T11:29:25.809Z,1.20
2023-05-18T11:31:55.703Z,1.00
2023-05-18T11:34:44.809Z,1.00
2023-05-18T11:37:15.894Z,1.30
2023-05-18T11:40:00.161Z,1.00
2023-05-18T11:42:34.557Z,0.90
2023-05-18T11:45:12.029Z,1.10
2023-05-18T11:47:41.830Z,1.10
2023-05-18T11:50:12.953Z,0.98
2023-05-18T11:52:48.968Z,1.30
2023-05-18T11:55:20.616Z,1.20
2023-05-18T11:57:53.686Z,1.10
2023-05-18T12:00:26.008Z,1.07
2023-05-18T12:02:57.596Z,1.00
2023-05-18T12:05:31.216Z,0.90
2023-05-18T12:08:00.666Z,1.03
2023-05-18T12:10:30.642Z,1.20
2023-05-18T12:13:01.126Z,1.17
2023-05-18T12:15:32.346Z,1.20
2023-05-18T12:18:01.212Z,1.35
2023-05-18T12:20:31.104Z,0.90
2023-05-18T12:23:00.020Z,0.93
2023-05-18T12:25:29.399Z,1.00
2023-05-18T12:27:58.355Z,1.33
2023-05-18T12:30:34.841Z,1.00
2023-05-18T12:33:06.995Z,1.10
2023-05-18T12:35:36.345Z,1.00
2023-05-18T12:38:05.314Z,1.10
2023-05-18T12:40:44.249Z,1.00
2023-05-18T12:43:13.338Z,0.87
2023-05-18T12:45:45.004Z,1.05
2023-05-18T12:48:15.414Z,1.00
2023-05-18T12:50:51.387Z,1.47
2023-05-18T12:53:20.969Z,1.23
2023-05-18T12:55:58.810Z,1.00
2023-05-18T12:58:27.568Z,0.90
2023-05-18T13:00:56.142Z,1.00
2023-05-18T13:03:26.717Z,1.03
2023-05-18T13:06:06.538Z,1.00
2023-05-18T13:08:36.724Z,1.10
2023-05-18T13:11:13.496Z,0.87
2023-05-18T13:13:58.535Z,0.87
2023-05-18T13:16:29.502Z,0.90
2023-05-18T13:19:02.171Z,1.20
2023-05-18T13:21:31.335Z,1.10
2023-05-18T13:24:00.923Z,0.90
2023-05-18T13:26:29.687Z,0.80
2023-05-18T13:29:00.141Z,0.90
2023-05-18T13:31:30.264Z,1.08
2023-05-18T13:34:00.440Z,1.13
2023-05-18T13:36:33.736Z,0.90
2023-05-18T13:39:05.567Z,1.40
2023-05-18T13:41:36.295Z,0.95
2023-05-18T13:44:05.306Z,0.90
2023-05-18T13:46:37.589Z,1.00
2023-05-18T13:49:07.909Z,0.98
2023-05-18T13:51:36.586Z,1.10
2023-05-18T13:54:07.874Z,0.93
2023-05-18T13:56:36.627Z,0.95
2023-05-18T13:59:05.404Z,0.80
2023-05-18T14:01:34.566Z,1.08
2023-05-18T14:04:03.286Z,1.17
2023-05-18T14:06:33.442Z,0.90
2023-05-18T14:09:02.126Z,2.03
2023-05-18T14:11:34.489Z,1.05
2023-05-18T14:14:03.318Z,1.02
2023-05-18T14:16:31.990Z,1.10
2023-05-18T14:19:00.736Z,1.35
2023-05-18T14:21:29.551Z,0.90
2023-05-18T14:24:03.615Z,1.10
2023-05-18T14:26:32.204Z,1.42
2023-05-18T14:29:01.073Z,1.08
2023-05-18T14:31:29.760Z,1.10
2023-05-18T14:33:58.478Z,1.25
2023-05-18T14:36:27.205Z,1.10
2023-05-18T14:38:56.123Z,0.97
2023-05-18T14:41:26.261Z,1.08
2023-05-18T14:43:54.915Z,1.10
2023-05-18T14:46:23.636Z,1.10
2023-05-18T14:48:52.453Z,1.17
2023-05-18T14:51:22.143Z,1.17
2023-05-18T14:53:51.015Z,1.17
2023-05-18T14:56:19.668Z,1.30
2023-05-18T14:58:49.847Z,1.02
2023-05-18T15:01:18.990Z,1.05
2023-05-18T15:03:47.945Z,1.20
2023-05-18T15:06:16.761Z,1.20
2023-05-18T15:08:45.628Z,1.05
2023-05-18T15:11:14.358Z,1.17
2023-05-18T15:13:44.099Z,1.05
2023-05-18T15:16:14.846Z,1.20
2023-05-18T15:18:43.808Z,1.40
2023-05-18T15:21:12.502Z,1.60
2023-05-18T15:23:41.221Z,1.23
2023-05-18T15:26:09.958Z,1.58
2023-05-18T15:28:38.702Z,1.00
2023-05-18T15:31:09.164Z,1.17
2023-05-18T15:33:42.368Z,1.17
2023-05-18T15:36:11.212Z,1.30
2023-05-18T15:38:39.861Z,1.33
2023-05-18T15:41:08.521Z,1.48
2023-05-18T15:43:39.071Z,1.10
2023-05-18T15:46:07.896Z,1.10
2023-05-18T15:48:38.065Z,1.10
2023-05-18T15:51:07.528Z,1.10
2023-05-18T15:53:36.284Z,1.15
2023-05-18T15:56:05.206Z,1.20
2023-05-18T15:58:34.376Z,1.00
2023-05-18T16:01:03.108Z,1.10
2023-05-18T16:03:31.782Z,1.10
2023-05-18T16:06:01.930Z,0.90
2023-05-18T16:08:32.040Z,1.10
2023-05-18T16:11:02.235Z,1.07
2023-05-18T16:13:32.094Z,1.40
2023-05-18T16:16:01.050Z,1.10
2023-05-18T16:18:29.676Z,1.87
2023-05-18T16:20:58.367Z,1.17
2023-05-18T16:23:28.385Z,1.20
2023-05-18T16:25:57.147Z,0.98
2023-05-18T16:28:26.073Z,1.20
2023-05-18T16:30:54.737Z,1.20
2023-05-18T16:33:25.294Z,1.23
2023-05-18T16:35:54.740Z,1.25
2023-05-18T16:38:23.409Z,1.23
2023-05-18T16:40:53.794Z,1.40
2023-05-18T16:43:22.571Z,1.02
2023-05-18T16:45:51.545Z,1.10
2023-05-18T16:48:20.837Z,1.20
2023-05-18T16:50:49.781Z,1.20
2023-05-18T16:53:18.665Z,1.10
2023-05-18T16:55:47.664Z,1.10
2023-05-18T16:58:18.221Z,1.27
2023-05-18T17:00:47.292Z,1.00
2023-05-18T17:03:17.351Z,1.10
2023-05-18T17:05:46.794Z,0.98
2023-05-18T17:08:16.217Z,1.20
2023-05-18T17:10:45.302Z,1.53
2023-05-18T17:13:14.111Z,1.20
2023-05-18T17:15:45.221Z,1.23
2023-05-18T17:18:14.051Z,1.40
2023-05-18T17:20:43.082Z,1.30
2023-05-18T17:23:17.568Z,1.30
2023-05-18T17:25:48.341Z,1.27
2023-05-18T17:28:18.953Z,1.10
2023-05-18T17:30:49.447Z,1.20
2023-05-18T17:33:18.481Z,1.10
2023-05-18T17:35:47.274Z,1.00
2023-05-18T17:38:17.290Z,1.30
2023-05-18T17:40:46.288Z,1.23
2023-05-18T17:43:15.199Z,1.90
2023-05-18T17:45:44.124Z,1.20
2023-05-18T17:48:14.539Z,1.50
2023-05-18T17:50:45.537Z,1.10
2023-05-18T17:53:15.099Z,1.20
2023-05-18T17:55:44.228Z,1.20
2023-05-18T17:58:13.357Z,1.77
2023-05-18T18:00:42.073Z,1.10
2023-05-18T18:03:11.691Z,1.20
2023-05-18T18:05:42.474Z,1.13
2023-05-18T18:08:11.800Z,1.27
2023-05-18T18:10:40.652Z,1.23
2023-05-18T18:13:09.863Z,1.50
2023-05-18T18:15:38.844Z,1.50
2023-05-18T18:18:08.169Z,1.20
2023-05-18T18:20:37.417Z,1.57
2023-05-18T18:23:08.033Z,1.60
2023-05-18T18:25:37.199Z,1.57
2023-05-18T18:28:08.146Z,1.53
2023-05-18T18:30:36.963Z,2.30
2023-05-18T18:33:05.944Z,1.50
2023-05-18T18:35:34.835Z,1.53
2023-05-18T18:38:04.143Z,1.93
2023-05-18T18:40:34.925Z,1.67
2023-05-18T18:43:03.948Z,1.70
2023-05-18T18:45:33.365Z,1.50
2023-05-18T18:48:03.503Z,1.83
2023-05-18T18:50:32.780Z,1.90
2023-05-18T18:53:02.030Z,1.63
2023-05-18T18:55:30.895Z,2.33
2023-05-18T18:58:01.635Z,2.00
2023-05-18T19:00:30.458Z,1.80
2023-05-18T19:02:59.612Z,1.90
2023-05-18T19:05:29.876Z,2.23
2023-05-18T19:07:59.187Z,4.20
2023-05-18T19:10:28.109Z,12.60
2023-05-18T19:12:59.477Z,13.43
2023-05-18T19:15:30.387Z,14.00
2023-05-18T19:17:59.723Z,17.43
2023-05-18T19:20:28.755Z,11.50
2023-05-18T19:22:57.736Z,7.07
2023-05-18T19:25:26.678Z,4.57
2023-05-18T19:27:55.707Z,4.37
2023-05-18T19:30:25.183Z,4.60
2023-05-18T19:32:55.872Z,4.13
2023-05-18T19:35:24.935Z,3.63
2023-05-18T19:37:54.342Z,3.93
2023-05-18T19:40:27.274Z,3.80
2023-05-18T19:42:56.354Z,4.83
2023-05-18T19:45:25.087Z,3.43
2023-05-18T19:47:55.811Z,3.20
2023-05-18T19:50:25.323Z,3.57
2023-05-18T19:52:54.292Z,4.03
2023-05-18T19:55:23.113Z,3.77
2023-05-18T19:57:52.315Z,3.53
2023-05-18T20:00:21.225Z,3.53
2023-05-18T20:02:50.334Z,4.17
2023-05-18T20:05:21.217Z,3.90
2023-05-18T20:07:50.125Z,3.47
2023-05-18T20:10:19.663Z,3.20
2023-05-18T20:12:48.570Z,3.00
2023-05-18T20:15:18.676Z,3.37
2023-05-18T20:17:47.807Z,3.63
2023-05-18T20:20:20.166Z,3.60
2023-05-18T20:22:50.669Z,4.00
2023-05-18T20:25:20.640Z,4.37
2023-05-18T20:27:49.629Z,4.60
2023-05-18T20:30:18.935Z,5.33
2023-05-18T20:32:47.964Z,5.30
2023-05-18T20:35:17.180Z,6.03
2023-05-18T20:37:46.958Z,5.40
2023-05-18T20:40:17.568Z,5.20
2023-05-18T20:42:48.288Z,4.77
2023-05-18T20:45:17.769Z,4.90
2023-05-18T20:47:47.470Z,4.30
2023-05-18T20:50:16.745Z,4.53
2023-05-18T20:52:46.161Z,4.43
2023-05-18T20:55:17.264Z,3.53
2023-05-18T20:57:49.111Z,3.60
2023-05-18T21:00:18.844Z,3.50
2023-05-18T21:02:48.733Z,3.80
2023-05-18T21:05:19.068Z,3.70
2023-05-18T21:07:50.569Z,3.23
2023-05-18T21:10:21.393Z,3.43
2023-05-18T21:12:50.541Z,3.70
2023-05-18T21:15:19.425Z,3.20
2023-05-18T21:17:48.578Z,3.50
2023-05-18T21:20:17.573Z,3.30
2023-05-18T21:22:46.954Z,3.33
2023-05-18T21:25:17.854Z,3.50
2023-05-18T21:27:48.590Z,3.10
2023-05-18T21:30:17.942Z,3.30
2023-05-18T21:32:48.285Z,2.70
2023-05-18T21:35:17.535Z,2.93
2023-05-18T21:37:46.404Z,2.80
2023-05-18T21:40:15.429Z,2.73
2023-05-18T21:42:45.853Z,2.50
2023-05-18T21:45:18.277Z,2.60
2023-05-18T21:47:49.202Z,2.50
2023-05-18T21:50:18.402Z,2.27
2023-05-18T21:52:47.337Z,2.40
2023-05-18T21:55:16.446Z,2.90
2023-05-18T21:57:45.359Z,2.50
2023-05-18T22:00:18.153Z,2.57
2023-05-18T22:02:47.428Z,2.33
2023-05-18T22:05:16.498Z,2.17
2023-05-18T22:07:45.666Z,2.60
2023-05-18T22:10:14.768Z,2.50
2023-05-18T22:12:44.654Z,2.30
2023-05-18T22:15:13.989Z,2.20
2023-05-18T22:17:46.291Z,2.60
2023-05-18T22:20:16.157Z,2.47
2023-05-18T22:22:45.296Z,2.20
2023-05-18T22:25:15.083Z,2.30
2023-05-18T22:27:43.984Z,2.17
2023-05-18T22:30:13.933Z,2.40
2023-05-18T22:32:46.339Z,2.27
2023-05-18T22:35:15.769Z,2.23
2023-05-18T22:37:44.714Z,2.47
2023-05-18T22:40:14.571Z,2.40
2023-05-18T22:42:43.583Z,2.30
2023-05-18T22:45:12.768Z,2.20
2023-05-18T22:47:45.383Z,2.00
2023-05-18T22:50:14.633Z,2.10
2023-05-18T22:52:44.005Z,1.90
2023-05-18T22:55:14.121Z,2.10
2023-05-18T22:57:43.562Z,1.80
2023-05-18T23:00:14.371Z,1.83
2023-05-18T23:02:44.931Z,1.87
2023-05-18T23:05:14.585Z,1.83
2023-05-18T23:07:43.468Z,1.83
2023-05-18T23:10:13.961Z,2.00
2023-05-18T23:12:45.591Z,2.10
2023-05-18T23:15:15.464Z,1.70
2023-05-18T23:17:48.253Z,1.87
2023-05-18T23:20:17.301Z,2.07
2023-05-18T23:22:46.131Z,2.10
2023-05-18T23:25:15.053Z,1.73
2023-05-18T23:27:43.981Z,2.10
2023-05-18T23:30:13.757Z,2.57
2023-05-18T23:32:43.497Z,2.40
2023-05-18T23:35:16.574Z,2.57
2023-05-18T23:37:48.234Z,2.40
2023-05-18T23:40:20.514Z,2.80
2023-05-18T23:42:49.948Z,2.40
2023-05-18T23:45:19.531Z,2.20
2023-05-18T23:47:48.928Z,2.30
2023-05-18T23:50:21.004Z,2.23
2023-05-18T23:52:52.973Z,2.07
2023-05-18T23:55:24.117Z,2.27
2023-05-18T23:57:53.698Z,2.17
